sensor_id;sensor_type;location;lat;lon;timestamp;P1;durP1;ratioP1;P2;durP2;ratioP2
62990;SDS011;49084;48.204;16.202;2023-04-25T00:01:05;1.48;;;1.35;;
62990;SDS011;49084;48.204;16.202;2023-04-25T00:03:31;3.22;;;1.65;;
62990;SDS011;49084;48.204;16.202;2023-04-25T00:05:58;2.00;;;1.50;;
62990;SDS011;49084;48.204;16.202;2023-04-25T00:08:28;1.75;;;1.25;;
62990;SDS011;49084;48.204;16.202;2023-04-25T00:10:54;2.28;;;1.45;;
62990;SDS011;49084;48.204;16.202;2023-04-25T00:13:20;1.52;;;1.33;;
62990;SDS011;49084;48.204;16.202;2023-04-25T00:15:46;2.40;;;1.40;;
62990;SDS011;49084;48.204;16.202;2023-04-25T00:18:13;1.55;;;1.45;;
62990;SDS011;49084;48.204;16.202;2023-04-25T00:20:39;1.55;;;1.42;;
62990;SDS011;49084;48.204;16.202;2023-04-25T00:23:05;2.47;;;1.60;;
62990;SDS011;49084;48.204;16.202;2023-04-25T00:25:31;2.85;;;1.80;;
62990;SDS011;49084;48.204;16.202;2023-04-25T00:27:57;2.90;;;1.85;;
62990;SDS011;49084;48.204;16.202;2023-04-25T00:30:22;4.90;;;2.00;;
62990;SDS011;49084;48.204;16.202;2023-04-25T00:32:48;4.38;;;1.90;;
62990;SDS011;49084;48.204;16.202;2023-04-25T00:35:14;2.63;;;1.73;;
62990;SDS011;49084;48.204;16.202;2023-04-25T00:37:40;2.92;;;2.03;;
62990;SDS011;49084;48.204;16.202;2023-04-25T00:40:06;1.77;;;1.67;;
62990;SDS011;49084;48.204;16.202;2023-04-25T00:42:32;1.98;;;1.80;;
62990;SDS011;49084;48.204;16.202;2023-04-25T00:44:59;2.38;;;1.83;;
62990;SDS011;49084;48.204;16.202;2023-04-25T00:47:26;2.33;;;2.03;;
62990;SDS011;49084;48.204;16.202;2023-04-25T00:49:53;2.65;;;1.92;;
62990;SDS011;49084;48.204;16.202;2023-04-25T00:52:19;2.88;;;2.03;;
62990;SDS011;49084;48.204;16.202;2023-04-25T00:54:45;3.78;;;1.80;;
62990;SDS011;49084;48.204;16.202;2023-04-25T00:57:11;1.70;;;1.60;;
62990;SDS011;49084;48.204;16.202;2023-04-25T00:59:37;2.08;;;1.88;;
62990;SDS011;49084;48.204;16.202;2023-04-25T01:02:04;3.13;;;2.20;;
62990;SDS011;49084;48.204;16.202;2023-04-25T01:04:30;2.50;;;1.95;;
62990;SDS011;49084;48.204;16.202;2023-04-25T01:06:55;4.75;;;1.88;;
62990;SDS011;49084;48.204;16.202;2023-04-25T01:09:22;4.22;;;2.05;;
62990;SDS011;49084;48.204;16.202;2023-04-25T01:11:49;2.85;;;1.80;;
62990;SDS011;49084;48.204;16.202;2023-04-25T01:14:15;3.15;;;1.80;;
62990;SDS011;49084;48.204;16.202;2023-04-25T01:16:41;2.20;;;1.75;;
62990;SDS011;49084;48.204;16.202;2023-04-25T01:19:08;2.03;;;1.83;;
62990;SDS011;49084;48.204;16.202;2023-04-25T01:21:38;3.20;;;2.05;;
62990;SDS011;49084;48.204;16.202;2023-04-25T01:24:04;3.00;;;2.10;;
62990;SDS011;49084;48.204;16.202;2023-04-25T01:26:30;2.38;;;1.80;;
62990;SDS011;49084;48.204;16.202;2023-04-25T01:28:57;3.08;;;1.85;;
62990;SDS011;49084;48.204;16.202;2023-04-25T01:31:24;3.92;;;1.58;;
62990;SDS011;49084;48.204;16.202;2023-04-25T01:33:50;3.00;;;2.25;;
62990;SDS011;49084;48.204;16.202;2023-04-25T01:36:16;2.65;;;1.63;;
62990;SDS011;49084;48.204;16.202;2023-04-25T01:38:42;3.83;;;1.75;;
62990;SDS011;49084;48.204;16.202;2023-04-25T01:41:09;7.30;;;1.70;;
62990;SDS011;49084;48.204;16.202;2023-04-25T01:43:34;1.92;;;1.80;;
62990;SDS011;49084;48.204;16.202;2023-04-25T01:46:00;2.53;;;2.08;;
62990;SDS011;49084;48.204;16.202;2023-04-25T01:48:26;1.92;;;1.75;;
62990;SDS011;49084;48.204;16.202;2023-04-25T01:50:52;3.05;;;2.40;;
62990;SDS011;49084;48.204;16.202;2023-04-25T01:53:17;4.03;;;2.30;;
62990;SDS011;49084;48.204;16.202;2023-04-25T01:55:43;3.05;;;2.13;;
62990;SDS011;49084;48.204;16.202;2023-04-25T01:58:09;3.15;;;2.03;;
62990;SDS011;49084;48.204;16.202;2023-04-25T02:00:37;2.75;;;2.20;;
62990;SDS011;49084;48.204;16.202;2023-04-25T02:03:04;2.75;;;2.40;;
62990;SDS011;49084;48.204;16.202;2023-04-25T02:05:34;2.67;;;1.90;;
62990;SDS011;49084;48.204;16.202;2023-04-25T02:08:04;8.60;;;2.28;;
62990;SDS011;49084;48.204;16.202;2023-04-25T02:10:30;4.53;;;2.45;;
62990;SDS011;49084;48.204;16.202;2023-04-25T02:12:57;4.35;;;2.40;;
62990;SDS011;49084;48.204;16.202;2023-04-25T02:15:23;4.18;;;2.38;;
62990;SDS011;49084;48.204;16.202;2023-04-25T02:17:49;3.17;;;2.50;;
62990;SDS011;49084;48.204;16.202;2023-04-25T02:20:15;4.05;;;2.30;;
62990;SDS011;49084;48.204;16.202;2023-04-25T02:22:44;3.67;;;2.05;;
62990;SDS011;49084;48.204;16.202;2023-04-25T02:25:10;2.95;;;2.30;;
62990;SDS011;49084;48.204;16.202;2023-04-25T02:27:37;5.82;;;2.67;;
62990;SDS011;49084;48.204;16.202;2023-04-25T02:30:03;5.45;;;2.47;;
62990;SDS011;49084;48.204;16.202;2023-04-25T02:32:29;3.13;;;2.20;;
62990;SDS011;49084;48.204;16.202;2023-04-25T02:34:55;3.80;;;2.35;;
62990;SDS011;49084;48.204;16.202;2023-04-25T02:37:23;2.30;;;1.90;;
62990;SDS011;49084;48.204;16.202;2023-04-25T02:39:49;2.83;;;2.40;;
62990;SDS011;49084;48.204;16.202;2023-04-25T02:42:15;2.78;;;2.25;;
62990;SDS011;49084;48.204;16.202;2023-04-25T02:44:40;5.65;;;2.30;;
62990;SDS011;49084;48.204;16.202;2023-04-25T02:47:06;4.32;;;2.20;;
62990;SDS011;49084;48.204;16.202;2023-04-25T02:49:32;3.83;;;2.22;;
62990;SDS011;49084;48.204;16.202;2023-04-25T02:51:57;3.90;;;2.25;;
62990;SDS011;49084;48.204;16.202;2023-04-25T02:54:23;3.58;;;1.85;;
62990;SDS011;49084;48.204;16.202;2023-04-25T02:56:48;2.28;;;2.08;;
62990;SDS011;49084;48.204;16.202;2023-04-25T02:59:14;3.50;;;2.33;;
62990;SDS011;49084;48.204;16.202;2023-04-25T03:01:40;3.95;;;2.00;;
62990;SDS011;49084;48.204;16.202;2023-04-25T03:04:06;9.00;;;2.20;;
62990;SDS011;49084;48.204;16.202;2023-04-25T03:06:31;4.18;;;2.20;;
62990;SDS011;49084;48.204;16.202;2023-04-25T03:08:57;2.45;;;2.25;;
62990;SDS011;49084;48.204;16.202;2023-04-25T03:11:24;2.70;;;2.13;;
62990;SDS011;49084;48.204;16.202;2023-04-25T03:13:50;3.28;;;2.45;;
62990;SDS011;49084;48.204;16.202;2023-04-25T03:16:16;3.70;;;2.28;;
62990;SDS011;49084;48.204;16.202;2023-04-25T03:18:41;3.17;;;2.50;;
62990;SDS011;49084;48.204;16.202;2023-04-25T03:21:07;3.22;;;2.67;;
62990;SDS011;49084;48.204;16.202;2023-04-25T03:23:33;3.20;;;2.60;;
62990;SDS011;49084;48.204;16.202;2023-04-25T03:25:58;3.08;;;2.58;;
62990;SDS011;49084;48.204;16.202;2023-04-25T03:28:24;4.95;;;2.80;;
62990;SDS011;49084;48.204;16.202;2023-04-25T03:30:50;2.70;;;2.50;;
62990;SDS011;49084;48.204;16.202;2023-04-25T03:33:16;3.55;;;2.15;;
62990;SDS011;49084;48.204;16.202;2023-04-25T03:35:41;3.33;;;2.30;;
62990;SDS011;49084;48.204;16.202;2023-04-25T03:38:07;3.53;;;2.50;;
62990;SDS011;49084;48.204;16.202;2023-04-25T03:40:33;2.70;;;2.10;;
62990;SDS011;49084;48.204;16.202;2023-04-25T03:42:59;3.50;;;2.50;;
62990;SDS011;49084;48.204;16.202;2023-04-25T03:45:24;2.75;;;1.95;;
62990;SDS011;49084;48.204;16.202;2023-04-25T03:47:50;3.70;;;2.30;;
62990;SDS011;49084;48.204;16.202;2023-04-25T03:50:16;3.78;;;2.75;;
62990;SDS011;49084;48.204;16.202;2023-04-25T03:52:42;4.93;;;2.20;;
62990;SDS011;49084;48.204;16.202;2023-04-25T03:55:08;2.95;;;2.35;;
62990;SDS011;49084;48.204;16.202;2023-04-25T03:57:34;2.75;;;2.38;;
62990;SDS011;49084;48.204;16.202;2023-04-25T04:00:00;3.63;;;2.30;;
62990;SDS011;49084;48.204;16.202;2023-04-25T04:02:25;3.90;;;2.42;;
62990;SDS011;49084;48.204;16.202;2023-04-25T04:04:51;5.00;;;2.42;;
62990;SDS011;49084;48.204;16.202;2023-04-25T04:07:17;2.65;;;2.30;;
62990;SDS011;49084;48.204;16.202;2023-04-25T04:09:42;5.35;;;2.88;;
62990;SDS011;49084;48.204;16.202;2023-04-25T04:12:08;2.78;;;2.00;;
62990;SDS011;49084;48.204;16.202;2023-04-25T04:14:34;3.65;;;2.85;;
62990;SDS011;49084;48.204;16.202;2023-04-25T04:16:59;3.33;;;2.58;;
62990;SDS011;49084;48.204;16.202;2023-04-25T04:19:25;2.95;;;2.40;;
62990;SDS011;49084;48.204;16.202;2023-04-25T04:21:51;6.57;;;2.80;;
62990;SDS011;49084;48.204;16.202;2023-04-25T04:24:16;6.93;;;3.03;;
62990;SDS011;49084;48.204;16.202;2023-04-25T04:26:42;4.28;;;2.58;;
62990;SDS011;49084;48.204;16.202;2023-04-25T04:29:10;2.72;;;2.50;;
62990;SDS011;49084;48.204;16.202;2023-04-25T04:31:36;4.00;;;2.40;;
62990;SDS011;49084;48.204;16.202;2023-04-25T04:34:01;7.13;;;2.83;;
62990;SDS011;49084;48.204;16.202;2023-04-25T04:36:28;6.53;;;3.08;;
62990;SDS011;49084;48.204;16.202;2023-04-25T04:38:54;2.72;;;2.15;;
62990;SDS011;49084;48.204;16.202;2023-04-25T04:41:21;5.15;;;2.50;;
62990;SDS011;49084;48.204;16.202;2023-04-25T04:43:47;8.10;;;3.55;;
62990;SDS011;49084;48.204;16.202;2023-04-25T04:46:13;2.50;;;2.30;;
62990;SDS011;49084;48.204;16.202;2023-04-25T04:48:39;8.13;;;2.85;;
62990;SDS011;49084;48.204;16.202;2023-04-25T04:51:05;4.03;;;2.25;;
62990;SDS011;49084;48.204;16.202;2023-04-25T04:53:31;3.85;;;2.50;;
62990;SDS011;49084;48.204;16.202;2023-04-25T04:55:57;6.18;;;2.63;;
62990;SDS011;49084;48.204;16.202;2023-04-25T04:58:23;4.43;;;2.85;;
62990;SDS011;49084;48.204;16.202;2023-04-25T05:00:48;3.75;;;2.75;;
62990;SDS011;49084;48.204;16.202;2023-04-25T05:03:14;2.90;;;2.38;;
62990;SDS011;49084;48.204;16.202;2023-04-25T05:05:40;4.43;;;3.08;;
62990;SDS011;49084;48.204;16.202;2023-04-25T05:08:06;2.97;;;2.70;;
62990;SDS011;49084;48.204;16.202;2023-04-25T05:10:32;4.70;;;2.90;;
62990;SDS011;49084;48.204;16.202;2023-04-25T05:12:58;5.88;;;2.75;;
62990;SDS011;49084;48.204;16.202;2023-04-25T05:15:24;5.32;;;2.78;;
62990;SDS011;49084;48.204;16.202;2023-04-25T05:17:49;4.85;;;3.30;;
62990;SDS011;49084;48.204;16.202;2023-04-25T05:20:21;3.88;;;2.75;;
62990;SDS011;49084;48.204;16.202;2023-04-25T05:22:46;3.30;;;2.40;;
62990;SDS011;49084;48.204;16.202;2023-04-25T05:25:12;5.57;;;2.88;;
62990;SDS011;49084;48.204;16.202;2023-04-25T05:27:38;4.65;;;2.85;;
62990;SDS011;49084;48.204;16.202;2023-04-25T05:30:04;3.47;;;3.00;;
62990;SDS011;49084;48.204;16.202;2023-04-25T05:32:30;6.85;;;2.70;;
62990;SDS011;49084;48.204;16.202;2023-04-25T05:34:56;8.18;;;3.05;;
62990;SDS011;49084;48.204;16.202;2023-04-25T05:37:21;4.90;;;2.72;;
62990;SDS011;49084;48.204;16.202;2023-04-25T05:39:47;4.32;;;3.03;;
62990;SDS011;49084;48.204;16.202;2023-04-25T05:42:12;5.00;;;2.55;;
62990;SDS011;49084;48.204;16.202;2023-04-25T05:44:38;4.20;;;3.10;;
62990;SDS011;49084;48.204;16.202;2023-04-25T05:47:04;6.90;;;2.70;;
62990;SDS011;49084;48.204;16.202;2023-04-25T05:49:30;3.05;;;2.47;;
62990;SDS011;49084;48.204;16.202;2023-04-25T05:51:56;4.35;;;2.38;;
62990;SDS011;49084;48.204;16.202;2023-04-25T05:54:21;4.00;;;3.00;;
62990;SDS011;49084;48.204;16.202;2023-04-25T05:56:47;4.18;;;2.75;;
62990;SDS011;49084;48.204;16.202;2023-04-25T05:59:12;2.40;;;2.20;;
62990;SDS011;49084;48.204;16.202;2023-04-25T06:01:38;3.15;;;2.47;;
62990;SDS011;49084;48.204;16.202;2023-04-25T06:04:05;3.75;;;2.20;;
62990;SDS011;49084;48.204;16.202;2023-04-25T06:06:30;8.40;;;2.20;;
62990;SDS011;49084;48.204;16.202;2023-04-25T06:08:56;4.28;;;2.33;;
62990;SDS011;49084;48.204;16.202;2023-04-25T06:11:22;2.67;;;2.20;;
62990;SDS011;49084;48.204;16.202;2023-04-25T06:13:48;3.08;;;2.53;;
62990;SDS011;49084;48.204;16.202;2023-04-25T06:16:13;4.32;;;2.33;;
62990;SDS011;49084;48.204;16.202;2023-04-25T06:18:39;3.13;;;1.83;;
62990;SDS011;49084;48.204;16.202;2023-04-25T06:21:05;4.65;;;2.63;;
62990;SDS011;49084;48.204;16.202;2023-04-25T06:23:30;3.45;;;2.30;;
62990;SDS011;49084;48.204;16.202;2023-04-25T06:25:56;3.22;;;1.90;;
62990;SDS011;49084;48.204;16.202;2023-04-25T06:28:22;4.43;;;1.60;;
62990;SDS011;49084;48.204;16.202;2023-04-25T06:30:49;2.88;;;1.90;;
62990;SDS011;49084;48.204;16.202;2023-04-25T06:33:15;2.72;;;2.20;;
62990;SDS011;49084;48.204;16.202;2023-04-25T06:35:40;4.20;;;1.88;;
62990;SDS011;49084;48.204;16.202;2023-04-25T06:38:06;3.53;;;2.33;;
62990;SDS011;49084;48.204;16.202;2023-04-25T06:40:32;2.42;;;1.98;;
62990;SDS011;49084;48.204;16.202;2023-04-25T06:42:57;3.83;;;1.98;;
62990;SDS011;49084;48.204;16.202;2023-04-25T06:45:23;3.03;;;2.17;;
62990;SDS011;49084;48.204;16.202;2023-04-25T06:47:48;4.78;;;1.95;;
62990;SDS011;49084;48.204;16.202;2023-04-25T06:50:14;1.98;;;1.55;;
62990;SDS011;49084;48.204;16.202;2023-04-25T06:52:40;2.05;;;1.67;;
62990;SDS011;49084;48.204;16.202;2023-04-25T06:55:05;1.73;;;1.50;;
62990;SDS011;49084;48.204;16.202;2023-04-25T06:57:31;2.13;;;1.70;;
62990;SDS011;49084;48.204;16.202;2023-04-25T06:59:57;2.25;;;1.50;;
62990;SDS011;49084;48.204;16.202;2023-04-25T07:02:22;3.25;;;1.65;;
62990;SDS011;49084;48.204;16.202;2023-04-25T07:04:48;3.83;;;1.95;;
62990;SDS011;49084;48.204;16.202;2023-04-25T07:07:14;3.78;;;2.00;;
62990;SDS011;49084;48.204;16.202;2023-04-25T07:09:39;2.05;;;1.85;;
62990;SDS011;49084;48.204;16.202;2023-04-25T07:12:05;2.53;;;2.10;;
62990;SDS011;49084;48.204;16.202;2023-04-25T07:14:31;3.13;;;2.03;;
62990;SDS011;49084;48.204;16.202;2023-04-25T07:16:57;4.05;;;1.85;;
62990;SDS011;49084;48.204;16.202;2023-04-25T07:19:23;2.38;;;1.55;;
62990;SDS011;49084;48.204;16.202;2023-04-25T07:21:51;1.77;;;1.67;;
62990;SDS011;49084;48.204;16.202;2023-04-25T07:24:17;3.40;;;1.90;;
62990;SDS011;49084;48.204;16.202;2023-04-25T07:26:43;1.73;;;1.63;;
62990;SDS011;49084;48.204;16.202;2023-04-25T07:29:09;2.00;;;1.80;;
62990;SDS011;49084;48.204;16.202;2023-04-25T07:31:34;2.40;;;1.83;;
62990;SDS011;49084;48.204;16.202;2023-04-25T07:34:00;2.17;;;1.63;;
62990;SDS011;49084;48.204;16.202;2023-04-25T07:36:26;3.22;;;2.05;;
62990;SDS011;49084;48.204;16.202;2023-04-25T07:38:52;3.08;;;1.92;;
62990;SDS011;49084;48.204;16.202;2023-04-25T07:41:17;3.25;;;2.08;;
62990;SDS011;49084;48.204;16.202;2023-04-25T07:43:43;3.65;;;2.10;;
62990;SDS011;49084;48.204;16.202;2023-04-25T07:46:09;1.77;;;1.67;;
62990;SDS011;49084;48.204;16.202;2023-04-25T07:48:34;1.85;;;1.75;;
62990;SDS011;49084;48.204;16.202;2023-04-25T07:51:00;3.53;;;1.70;;
62990;SDS011;49084;48.204;16.202;2023-04-25T07:53:25;3.20;;;1.75;;
62990;SDS011;49084;48.204;16.202;2023-04-25T07:55:51;2.30;;;2.10;;
62990;SDS011;49084;48.204;16.202;2023-04-25T07:58:17;2.85;;;1.92;;
62990;SDS011;49084;48.204;16.202;2023-04-25T08:03:12;1.90;;;1.70;;
62990;SDS011;49084;48.204;16.202;2023-04-25T08:05:38;3.60;;;1.50;;
62990;SDS011;49084;48.204;16.202;2023-04-25T08:08:04;2.67;;;1.60;;
62990;SDS011;49084;48.204;16.202;2023-04-25T08:10:31;2.97;;;1.60;;
62990;SDS011;49084;48.204;16.202;2023-04-25T08:12:57;2.80;;;1.20;;
62990;SDS011;49084;48.204;16.202;2023-04-25T08:15:23;1.05;;;0.93;;
62990;SDS011;49084;48.204;16.202;2023-04-25T08:17:50;4.90;;;1.50;;
62990;SDS011;49084;48.204;16.202;2023-04-25T08:20:16;1.90;;;1.70;;
62990;SDS011;49084;48.204;16.202;2023-04-25T08:22:42;1.58;;;1.48;;
62990;SDS011;49084;48.204;16.202;2023-04-25T08:25:07;2.10;;;1.90;;
62990;SDS011;49084;48.204;16.202;2023-04-25T08:27:33;4.13;;;1.77;;
62990;SDS011;49084;48.204;16.202;2023-04-25T08:29:59;3.65;;;1.88;;
62990;SDS011;49084;48.204;16.202;2023-04-25T08:32:25;3.80;;;1.58;;
62990;SDS011;49084;48.204;16.202;2023-04-25T08:34:51;1.70;;;1.60;;
62990;SDS011;49084;48.204;16.202;2023-04-25T08:37:19;2.85;;;2.03;;
62990;SDS011;49084;48.204;16.202;2023-04-25T08:39:45;2.92;;;1.80;;
62990;SDS011;49084;48.204;16.202;2023-04-25T08:42:13;2.42;;;2.08;;
62990;SDS011;49084;48.204;16.202;2023-04-25T08:44:40;2.72;;;2.03;;
62990;SDS011;49084;48.204;16.202;2023-04-25T08:47:06;2.33;;;1.90;;
62990;SDS011;49084;48.204;16.202;2023-04-25T08:49:32;3.55;;;1.90;;
62990;SDS011;49084;48.204;16.202;2023-04-25T08:52:03;2.25;;;1.98;;
62990;SDS011;49084;48.204;16.202;2023-04-25T08:54:32;2.10;;;1.90;;
62990;SDS011;49084;48.204;16.202;2023-04-25T08:57:01;6.25;;;2.20;;
62990;SDS011;49084;48.204;16.202;2023-04-25T08:59:29;2.80;;;2.17;;
62990;SDS011;49084;48.204;16.202;2023-04-25T09:01:56;3.17;;;2.20;;
62990;SDS011;49084;48.204;16.202;2023-04-25T09:04:22;2.13;;;1.80;;
62990;SDS011;49084;48.204;16.202;2023-04-25T09:06:47;2.42;;;2.20;;
62990;SDS011;49084;48.204;16.202;2023-04-25T09:09:13;6.95;;;1.80;;
62990;SDS011;49084;48.204;16.202;2023-04-25T09:11:39;2.10;;;1.88;;
62990;SDS011;49084;48.204;16.202;2023-04-25T09:14:13;2.22;;;1.42;;
62990;SDS011;49084;48.204;16.202;2023-04-25T09:19:39;2.22;;;1.80;;
62990;SDS011;49084;48.204;16.202;2023-04-25T09:22:05;3.72;;;1.35;;
62990;SDS011;49084;48.204;16.202;2023-04-25T09:24:42;2.65;;;1.60;;
62990;SDS011;49084;48.204;16.202;2023-04-25T09:27:09;2.60;;;1.25;;
62990;SDS011;49084;48.204;16.202;2023-04-25T09:29:37;8.98;;;3.15;;
62990;SDS011;49084;48.204;16.202;2023-04-25T09:32:13;5.75;;;1.95;;
62990;SDS011;49084;48.204;16.202;2023-04-25T09:34:48;1.77;;;1.38;;
62990;SDS011;49084;48.204;16.202;2023-04-25T09:37:22;1.48;;;1.20;;
62990;SDS011;49084;48.204;16.202;2023-04-25T09:39:49;3.00;;;0.80;;
62990;SDS011;49084;48.204;16.202;2023-04-25T09:42:17;0.60;;;0.57;;
62990;SDS011;49084;48.204;16.202;2023-04-25T09:47:12;2.25;;;0.73;;
62990;SDS011;49084;48.204;16.202;2023-04-25T09:49:40;1.13;;;0.70;;
62990;SDS011;49084;48.204;16.202;2023-04-25T09:52:14;1.45;;;0.60;;
62990;SDS011;49084;48.204;16.202;2023-04-25T09:54:44;2.10;;;0.50;;
62990;SDS011;49084;48.204;16.202;2023-04-25T09:57:17;1.67;;;0.70;;
62990;SDS011;49084;48.204;16.202;2023-04-25T10:02:10;4.97;;;0.88;;
62990;SDS011;49084;48.204;16.202;2023-04-25T10:04:37;0.60;;;0.60;;
62990;SDS011;49084;48.204;16.202;2023-04-25T10:07:07;5.45;;;1.10;;
62990;SDS011;49084;48.204;16.202;2023-04-25T10:09:33;1.75;;;0.80;;
62990;SDS011;49084;48.204;16.202;2023-04-25T10:12:02;0.85;;;0.80;;
62990;SDS011;49084;48.204;16.202;2023-04-25T10:14:29;1.90;;;0.88;;
62990;SDS011;49084;48.204;16.202;2023-04-25T10:16:57;2.72;;;0.88;;
62990;SDS011;49084;48.204;16.202;2023-04-25T10:19:24;1.20;;;0.80;;
62990;SDS011;49084;48.204;16.202;2023-04-25T10:24:57;0.60;;;0.40;;
62990;SDS011;49084;48.204;16.202;2023-04-25T10:27:24;1.00;;;0.70;;
62990;SDS011;49084;48.204;16.202;2023-04-25T10:30:05;1.27;;;0.77;;
62990;SDS011;49084;48.204;16.202;2023-04-25T10:32:36;3.70;;;1.13;;
62990;SDS011;49084;48.204;16.202;2023-04-25T10:35:12;0.80;;;0.80;;
62990;SDS011;49084;48.204;16.202;2023-04-25T10:37:56;1.10;;;0.68;;
62990;SDS011;49084;48.204;16.202;2023-04-25T10:40:23;3.00;;;0.70;;
62990;SDS011;49084;48.204;16.202;2023-04-25T10:42:51;1.30;;;0.63;;
62990;SDS011;49084;48.204;16.202;2023-04-25T10:45:21;2.92;;;1.05;;
62990;SDS011;49084;48.204;16.202;2023-04-25T10:47:47;1.27;;;0.77;;
62990;SDS011;49084;48.204;16.202;2023-04-25T10:50:16;2.05;;;0.90;;
62990;SDS011;49084;48.204;16.202;2023-04-25T10:52:42;3.40;;;0.90;;
62990;SDS011;49084;48.204;16.202;2023-04-25T10:55:09;1.13;;;1.00;;
62990;SDS011;49084;48.204;16.202;2023-04-25T10:57:44;2.13;;;1.33;;
62990;SDS011;49084;48.204;16.202;2023-04-25T11:00:18;1.10;;;1.00;;
62990;SDS011;49084;48.204;16.202;2023-04-25T11:07:50;2.33;;;1.23;;
62990;SDS011;49084;48.204;16.202;2023-04-25T11:10:17;5.35;;;1.25;;
62990;SDS011;49084;48.204;16.202;2023-04-25T11:12:44;2.28;;;1.20;;
62990;SDS011;49084;48.204;16.202;2023-04-25T11:15:11;5.20;;;1.42;;
62990;SDS011;49084;48.204;16.202;2023-04-25T11:17:37;3.78;;;1.58;;
62990;SDS011;49084;48.204;16.202;2023-04-25T11:20:05;5.85;;;2.42;;
62990;SDS011;49084;48.204;16.202;2023-04-25T11:22:36;6.28;;;2.60;;
62990;SDS011;49084;48.204;16.202;2023-04-25T11:25:07;4.22;;;1.95;;
62990;SDS011;49084;48.204;16.202;2023-04-25T11:27:34;2.75;;;1.27;;
62990;SDS011;49084;48.204;16.202;2023-04-25T11:30:18;4.05;;;1.30;;
62990;SDS011;49084;48.204;16.202;2023-04-25T11:32:44;1.70;;;1.33;;
62990;SDS011;49084;48.204;16.202;2023-04-25T11:35:10;3.90;;;1.05;;
62990;SDS011;49084;48.204;16.202;2023-04-25T11:37:38;2.65;;;1.15;;
62990;SDS011;49084;48.204;16.202;2023-04-25T11:40:06;2.93;;;1.30;;
62990;SDS011;49084;48.204;16.202;2023-04-25T11:42:33;6.85;;;1.48;;
62990;SDS011;49084;48.204;16.202;2023-04-25T11:44:59;6.80;;;1.80;;
62990;SDS011;49084;48.204;16.202;2023-04-25T11:47:32;3.25;;;1.73;;
62990;SDS011;49084;48.204;16.202;2023-04-25T11:49:59;1.20;;;1.10;;
62990;SDS011;49084;48.204;16.202;2023-04-25T11:52:34;2.47;;;0.82;;
62990;SDS011;49084;48.204;16.202;2023-04-25T11:55:18;1.73;;;1.27;;
62990;SDS011;49084;48.204;16.202;2023-04-25T11:57:46;2.08;;;0.45;;
62990;SDS011;49084;48.204;16.202;2023-04-25T12:00:17;1.23;;;0.70;;
62990;SDS011;49084;48.204;16.202;2023-04-25T12:02:55;0.63;;;0.30;;
62990;SDS011;49084;48.204;16.202;2023-04-25T12:05:27;2.20;;;0.55;;
62990;SDS011;49084;48.204;16.202;2023-04-25T12:07:55;0.40;;;0.40;;
62990;SDS011;49084;48.204;16.202;2023-04-25T12:10:21;1.38;;;0.73;;
62990;SDS011;49084;48.204;16.202;2023-04-25T12:12:49;1.15;;;0.50;;
62990;SDS011;49084;48.204;16.202;2023-04-25T12:15:15;0.68;;;0.40;;
62990;SDS011;49084;48.204;16.202;2023-04-25T12:17:54;1.30;;;0.30;;
62990;SDS011;49084;48.204;16.202;2023-04-25T12:20:20;0.75;;;0.50;;
62990;SDS011;49084;48.204;16.202;2023-04-25T12:22:49;1.85;;;0.60;;
62990;SDS011;49084;48.204;16.202;2023-04-25T12:25:34;0.90;;;0.50;;
62990;SDS011;49084;48.204;16.202;2023-04-25T12:28:14;0.38;;;0.35;;
62990;SDS011;49084;48.204;16.202;2023-04-25T12:33:27;0.40;;;0.40;;
62990;SDS011;49084;48.204;16.202;2023-04-25T12:35:58;0.50;;;0.45;;
62990;SDS011;49084;48.204;16.202;2023-04-25T12:38:27;1.63;;;0.43;;
62990;SDS011;49084;48.204;16.202;2023-04-25T12:40:55;4.80;;;1.98;;
62990;SDS011;49084;48.204;16.202;2023-04-25T12:43:21;1.90;;;0.60;;
62990;SDS011;49084;48.204;16.202;2023-04-25T12:45:48;0.98;;;0.50;;
62990;SDS011;49084;48.204;16.202;2023-04-25T12:48:18;0.45;;;0.30;;
62990;SDS011;49084;48.204;16.202;2023-04-25T12:50:44;1.95;;;0.50;;
62990;SDS011;49084;48.204;16.202;2023-04-25T12:53:10;0.68;;;0.38;;
62990;SDS011;49084;48.204;16.202;2023-04-25T12:55:36;0.77;;;0.40;;
62990;SDS011;49084;48.204;16.202;2023-04-25T12:58:02;0.30;;;0.30;;
62990;SDS011;49084;48.204;16.202;2023-04-25T13:00:28;0.80;;;0.13;;
62990;SDS011;49084;48.204;16.202;2023-04-25T13:02:55;0.50;;;0.30;;
62990;SDS011;49084;48.204;16.202;2023-04-25T13:05:20;0.55;;;0.30;;
62990;SDS011;49084;48.204;16.202;2023-04-25T13:07:46;3.45;;;0.35;;
62990;SDS011;49084;48.204;16.202;2023-04-25T13:10:12;1.05;;;0.40;;
62990;SDS011;49084;48.204;16.202;2023-04-25T13:12:38;1.60;;;0.73;;
62990;SDS011;49084;48.204;16.202;2023-04-25T13:15:03;3.95;;;0.50;;
62990;SDS011;49084;48.204;16.202;2023-04-25T13:17:29;0.60;;;0.15;;
62990;SDS011;49084;48.204;16.202;2023-04-25T13:19:55;1.13;;;0.20;;
62990;SDS011;49084;48.204;16.202;2023-04-25T13:22:21;0.75;;;0.20;;
62990;SDS011;49084;48.204;16.202;2023-04-25T13:24:46;0.73;;;0.32;;
62990;SDS011;49084;48.204;16.202;2023-04-25T13:27:12;0.28;;;0.20;;
62990;SDS011;49084;48.204;16.202;2023-04-25T13:29:38;0.98;;;0.20;;
62990;SDS011;49084;48.204;16.202;2023-04-25T13:32:05;1.05;;;0.35;;
62990;SDS011;49084;48.204;16.202;2023-04-25T13:34:31;2.65;;;0.70;;
62990;SDS011;49084;48.204;16.202;2023-04-25T13:36:57;2.15;;;0.70;;
62990;SDS011;49084;48.204;16.202;2023-04-25T13:39:23;1.83;;;0.40;;
62990;SDS011;49084;48.204;16.202;2023-04-25T13:41:49;0.30;;;0.30;;
62990;SDS011;49084;48.204;16.202;2023-04-25T13:44:15;1.80;;;0.40;;
62990;SDS011;49084;48.204;16.202;2023-04-25T13:46:41;0.65;;;0.15;;
62990;SDS011;49084;48.204;16.202;2023-04-25T13:49:06;1.10;;;0.30;;
62990;SDS011;49084;48.204;16.202;2023-04-25T13:51:32;1.63;;;0.30;;
62990;SDS011;49084;48.204;16.202;2023-04-25T13:53:58;1.23;;;0.10;;
62990;SDS011;49084;48.204;16.202;2023-04-25T13:56:23;2.28;;;0.45;;
62990;SDS011;49084;48.204;16.202;2023-04-25T13:58:49;0.32;;;0.20;;
62990;SDS011;49084;48.204;16.202;2023-04-25T14:01:16;0.52;;;0.10;;
62990;SDS011;49084;48.204;16.202;2023-04-25T14:03:42;1.50;;;0.28;;
62990;SDS011;49084;48.204;16.202;2023-04-25T14:06:08;0.43;;;0.30;;
62990;SDS011;49084;48.204;16.202;2023-04-25T14:08:34;1.38;;;0.20;;
62990;SDS011;49084;48.204;16.202;2023-04-25T14:10:59;0.28;;;0.20;;
62990;SDS011;49084;48.204;16.202;2023-04-25T14:13:25;1.10;;;0.22;;
62990;SDS011;49084;48.204;16.202;2023-04-25T14:15:51;0.60;;;0.30;;
62990;SDS011;49084;48.204;16.202;2023-04-25T14:18:17;1.20;;;0.50;;
62990;SDS011;49084;48.204;16.202;2023-04-25T14:20:44;0.43;;;0.28;;
62990;SDS011;49084;48.204;16.202;2023-04-25T14:23:10;1.35;;;0.20;;
62990;SDS011;49084;48.204;16.202;2023-04-25T14:25:35;0.65;;;0.20;;
62990;SDS011;49084;48.204;16.202;2023-04-25T14:28:01;0.60;;;0.50;;
62990;SDS011;49084;48.204;16.202;2023-04-25T14:30:27;0.25;;;0.25;;
62990;SDS011;49084;48.204;16.202;2023-04-25T14:32:53;0.55;;;0.30;;
62990;SDS011;49084;48.204;16.202;2023-04-25T14:35:19;1.25;;;0.30;;
62990;SDS011;49084;48.204;16.202;2023-04-25T14:37:44;3.67;;;0.60;;
62990;SDS011;49084;48.204;16.202;2023-04-25T14:40:11;0.30;;;0.30;;
62990;SDS011;49084;48.204;16.202;2023-04-25T14:42:38;0.30;;;0.20;;
62990;SDS011;49084;48.204;16.202;2023-04-25T14:45:07;1.08;;;0.30;;
62990;SDS011;49084;48.204;16.202;2023-04-25T14:47:33;2.22;;;0.43;;
62990;SDS011;49084;48.204;16.202;2023-04-25T14:50:00;0.50;;;0.50;;
62990;SDS011;49084;48.204;16.202;2023-04-25T14:52:26;2.22;;;0.38;;